createdAt,value
2023-02-24T00:02:05.717Z,33.53
2023-02-24T00:04:38.348Z,24.30
2023-02-24T00:07:10.667Z,30.27
2023-02-24T00:09:39.122Z,22.37
2023-02-24T00:12:13.112Z,30.33
2023-02-24T00:14:43.467Z,21.47
2023-02-24T00:17:15.129Z,24.90
2023-02-24T00:19:42.465Z,20.77
2023-02-24T00:22:09.829Z,25.47
2023-02-24T00:24:37.557Z,20.13
2023-02-24T00:27:12.015Z,22.00
2023-02-24T00:29:41.891Z,29.50
2023-02-24T00:32:12.620Z,27.73
2023-02-24T00:34:40.563Z,26.00
2023-02-24T00:37:07.519Z,21.43
2023-02-24T00:39:35.918Z,25.27
2023-02-24T00:42:06.229Z,43.60
2023-02-24T00:44:43.841Z,31.60
2023-02-24T00:47:12.252Z,24.40
2023-02-24T00:49:44.507Z,30.93
2023-02-24T00:52:21.735Z,35.73
2023-02-24T00:54:50.692Z,42.80
2023-02-24T00:57:18.665Z,30.30
2023-02-24T00:59:48.560Z,30.93
2023-02-24T01:02:16.180Z,25.07
2023-02-24T01:04:44.774Z,39.10
2023-02-24T01:07:13.979Z,34.07
2023-02-24T01:09:41.917Z,34.47
2023-02-24T01:12:30.470Z,31.60
2023-02-24T01:14:57.697Z,35.23
2023-02-24T01:17:25.451Z,27.50
2023-02-24T01:19:52.812Z,32.47
2023-02-24T01:22:21.344Z,37.30
2023-02-24T01:24:49.008Z,37.93
2023-02-24T01:27:21.235Z,38.47
2023-02-24T01:29:48.829Z,33.90
2023-02-24T01:32:20.339Z,26.10
2023-02-24T01:34:51.495Z,32.87
2023-02-24T01:37:19.494Z,27.20
2023-02-24T01:39:47.708Z,32.20
2023-02-24T01:42:20.084Z,27.10
2023-02-24T01:44:47.649Z,28.57
2023-02-24T01:47:20.875Z,26.30
2023-02-24T01:49:52.261Z,26.60
2023-02-24T01:52:26.994Z,26.20
2023-02-24T01:54:58.537Z,32.63
2023-02-24T01:57:31.253Z,32.43
2023-02-24T02:00:11.170Z,30.83
2023-02-24T02:02:46.426Z,30.20
2023-02-24T02:05:14.793Z,26.60
2023-02-24T02:07:43.522Z,32.77
2023-02-24T02:10:11.671Z,35.90
2023-02-24T02:12:44.189Z,33.17
2023-02-24T02:15:15.456Z,30.40
2023-02-24T02:18:08.168Z,39.27
2023-02-24T02:20:55.794Z,30.40
2023-02-24T02:24:04.609Z,28.47
2023-02-24T02:27:20.955Z,27.87
2023-02-24T02:30:19.608Z,34.10
2023-02-24T02:33:01.887Z,34.93
2023-02-24T02:35:46.392Z,46.37
2023-02-24T02:38:38.045Z,30.97
2023-02-24T02:41:21.711Z,36.70
2023-02-24T02:44:12.059Z,36.80
2023-02-24T02:46:47.457Z,36.27
2023-02-24T02:49:20.811Z,30.87
2023-02-24T02:51:56.820Z,34.60
2023-02-24T02:54:37.061Z,38.30
2023-02-24T02:57:16.838Z,33.80
2023-02-24T02:59:53.604Z,41.80
2023-02-24T03:02:29.517Z,42.00
2023-02-24T03:05:01.941Z,43.70
2023-02-24T03:07:37.544Z,50.53
2023-02-24T03:10:20.887Z,53.40
2023-02-24T03:12:54.137Z,59.83
2023-02-24T03:15:24.134Z,66.13
2023-02-24T03:18:10.160Z,62.90
2023-02-24T03:20:43.133Z,68.90
2023-02-24T03:23:26.140Z,66.67
2023-02-24T03:26:21.944Z,55.97
2023-02-24T03:29:23.906Z,54.57
2023-02-24T03:32:10.138Z,55.03
2023-02-24T03:34:55.632Z,49.67
2023-02-24T03:37:28.138Z,60.43
2023-02-24T03:40:11.580Z,55.63
2023-02-24T03:42:52.888Z,54.67
2023-02-24T03:45:23.087Z,58.70
2023-02-24T03:47:54.072Z,53.63
2023-02-24T03:50:22.180Z,41.80
2023-02-24T03:53:22.356Z,45.87
2023-02-24T03:56:23.448Z,53.30
2023-02-24T03:59:13.376Z,49.43
2023-02-24T04:02:00.926Z,46.17
2023-02-24T04:04:59.525Z,44.17
2023-02-24T04:07:52.797Z,61.53
2023-02-24T04:10:41.764Z,58.50
2023-02-24T04:13:35.212Z,58.00
2023-02-24T04:16:27.972Z,46.57
2023-02-24T04:19:03.743Z,49.23
2023-02-24T04:21:33.534Z,46.07
2023-02-24T04:24:11.478Z,52.03
2023-02-24T04:26:42.904Z,50.00
2023-02-24T04:29:17.708Z,50.70
2023-02-24T04:31:50.867Z,62.33
2023-02-24T04:34:20.173Z,50.40
2023-02-24T04:36:51.687Z,52.97
2023-02-24T04:39:21.228Z,56.27
2023-02-24T04:41:52.294Z,47.67
2023-02-24T04:44:22.873Z,41.37
2023-02-24T04:46:51.373Z,47.83
2023-02-24T04:49:19.764Z,47.00
2023-02-24T04:51:47.256Z,51.93
2023-02-24T04:54:17.614Z,46.93
2023-02-24T04:56:47.919Z,42.87
2023-02-24T04:59:15.403Z,51.53
2023-02-24T05:01:44.173Z,47.43
2023-02-24T05:04:14.022Z,47.00
2023-02-24T05:06:44.069Z,49.87
2023-02-24T05:09:19.479Z,48.00
2023-02-24T05:11:51.782Z,47.90
2023-02-24T05:14:24.946Z,50.70
2023-02-24T05:16:52.067Z,54.10
2023-02-24T05:19:39.453Z,63.57
2023-02-24T05:22:11.621Z,69.67
2023-02-24T05:24:38.618Z,64.70
2023-02-24T05:27:05.551Z,59.17
2023-02-24T05:29:34.992Z,57.20
2023-02-24T05:32:04.105Z,53.90
2023-02-24T05:34:33.233Z,69.97
2023-02-24T05:37:04.421Z,66.80
2023-02-24T05:39:31.487Z,59.07
2023-02-24T05:41:58.515Z,61.50
2023-02-24T05:44:26.829Z,56.30
2023-02-24T05:46:58.299Z,53.67
2023-02-24T05:49:31.250Z,60.80
2023-02-24T05:52:01.511Z,61.40
2023-02-24T05:54:36.626Z,63.70
2023-02-24T05:57:11.981Z,55.97
2023-02-24T05:59:44.539Z,57.27
2023-02-24T06:02:15.802Z,61.37
2023-02-24T06:04:53.855Z,52.87
2023-02-24T06:07:25.336Z,55.07
2023-02-24T06:09:57.810Z,57.17
2023-02-24T06:12:33.706Z,53.03
2023-02-24T06:15:02.281Z,54.10
2023-02-24T06:17:29.772Z,58.17
2023-02-24T06:19:56.760Z,52.40
2023-02-24T06:22:26.218Z,51.90
2023-02-24T06:24:54.763Z,55.27
2023-02-24T06:27:24.582Z,57.70
2023-02-24T06:29:54.148Z,59.30
2023-02-24T06:32:26.065Z,61.60
2023-02-24T06:34:53.979Z,63.87
2023-02-24T06:37:22.987Z,57.80
2023-02-24T06:39:50.167Z,69.23
2023-02-24T06:42:17.152Z,62.10
2023-02-24T06:44:44.111Z,63.70
2023-02-24T06:47:14.543Z,64.50
2023-02-24T06:49:42.962Z,76.23
2023-02-24T06:52:11.656Z,88.23
2023-02-24T06:54:38.835Z,81.20
2023-02-24T06:57:05.894Z,69.10
2023-02-24T06:59:33.071Z,82.47
2023-02-24T07:02:04.669Z,84.30
2023-02-24T07:04:41.944Z,83.30
2023-02-24T07:07:10.490Z,71.27
2023-02-24T07:09:37.437Z,87.70
2023-02-24T07:12:04.810Z,70.80
2023-02-24T07:14:31.880Z,68.40
2023-02-24T07:17:00.156Z,68.47
2023-02-24T07:19:30.666Z,81.50
2023-02-24T07:22:02.094Z,76.27
2023-02-24T07:24:36.070Z,68.43
2023-02-24T07:27:23.405Z,68.60
2023-02-24T07:29:53.276Z,81.60
2023-02-24T07:32:22.393Z,74.20
2023-02-24T07:34:49.465Z,69.40
2023-02-24T07:37:16.814Z,80.07
2023-02-24T07:39:43.962Z,72.10
2023-02-24T07:42:14.680Z,67.63
2023-02-24T07:44:46.573Z,62.60
2023-02-24T07:47:15.917Z,73.10
2023-02-24T07:49:43.675Z,71.37
2023-02-24T07:52:11.672Z,77.13
2023-02-24T07:54:39.228Z,63.37
2023-02-24T07:57:13.541Z,66.33
2023-02-24T07:59:47.251Z,70.87
2023-02-24T08:02:15.359Z,79.40
2023-02-24T08:04:49.909Z,88.00
2023-02-24T08:07:24.192Z,90.53
2023-02-24T08:10:10.059Z,83.33
2023-02-24T08:12:43.071Z,101.67
2023-02-24T08:15:17.759Z,115.97
2023-02-24T08:17:47.314Z,114.57
2023-02-24T08:20:14.816Z,101.57
2023-02-24T08:22:46.646Z,96.87
2023-02-24T08:25:19.032Z,101.93
2023-02-24T08:28:12.520Z,105.00
2023-02-24T08:30:45.604Z,125.90
2023-02-24T08:33:19.943Z,108.53
2023-02-24T08:35:57.983Z,97.50
2023-02-24T08:38:27.571Z,120.27
2023-02-24T08:40:55.766Z,106.87
2023-02-24T08:43:30.420Z,124.77
2023-02-24T08:46:13.405Z,112.03
2023-02-24T08:48:44.896Z,118.30
2023-02-24T08:51:23.477Z,106.40
2023-02-24T08:53:53.782Z,125.43
2023-02-24T08:56:28.545Z,119.77
2023-02-24T08:59:05.691Z,133.67
2023-02-24T09:02:04.241Z,111.83
2023-02-24T09:04:34.354Z,119.00
2023-02-24T09:07:11.810Z,129.17
2023-02-24T09:09:42.204Z,133.47
2023-02-24T09:12:21.916Z,108.37
2023-02-24T09:14:55.414Z,128.90
2023-02-24T09:17:49.640Z,120.03
2023-02-24T09:20:25.888Z,127.40
2023-02-24T09:22:57.962Z,105.07
2023-02-24T09:25:40.624Z,116.90
2023-02-24T09:28:17.984Z,125.77
2023-02-24T09:30:53.264Z,107.60
2023-02-24T09:33:51.054Z,138.10
2023-02-24T09:36:20.965Z,147.60
2023-02-24T09:39:00.760Z,117.83
2023-02-24T09:42:17.979Z,111.67
2023-02-24T09:44:52.818Z,100.80
2023-02-24T09:47:52.104Z,125.37
2023-02-24T09:50:55.551Z,120.27
2023-02-24T09:53:18.360Z,100.37
2023-02-24T09:56:00.318Z,94.60
2023-02-24T09:58:47.766Z,90.10
2023-02-24T10:01:23.734Z,98.30
2023-02-24T10:04:23.169Z,102.70
2023-02-24T10:07:22.857Z,102.17
2023-02-24T10:10:19.664Z,91.93
2023-02-24T10:13:30.108Z,73.73
2023-02-24T10:16:06.249Z,77.97
2023-02-24T10:19:01.133Z,87.17
2023-02-24T10:22:00.233Z,73.27
2023-02-24T10:24:34.370Z,72.97
2023-02-24T10:27:24.994Z,82.80
2023-02-24T10:30:11.470Z,75.73
2023-02-24T10:32:53.385Z,72.17
2023-02-24T10:35:25.932Z,73.90
2023-02-24T10:37:58.913Z,82.27
2023-02-24T10:40:43.749Z,81.67
2023-02-24T10:43:17.890Z,79.73
2023-02-24T10:45:46.882Z,96.03
2023-02-24T10:48:41.033Z,89.93
2023-02-24T10:51:20.024Z,96.17
2023-02-24T10:54:09.806Z,76.40
2023-02-24T10:56:55.384Z,86.53
2023-02-24T10:59:25.427Z,129.13
2023-02-24T11:02:24.601Z,100.87
2023-02-24T11:04:54.756Z,86.40
2023-02-24T11:07:24.952Z,80.30
2023-02-24T11:10:25.993Z,105.97
2023-02-24T11:13:13.751Z,91.53
2023-02-24T11:16:05.310Z,91.50
2023-02-24T11:18:32.780Z,77.20
2023-02-24T11:21:02.590Z,77.87
2023-02-24T11:23:37.957Z,82.10
2023-02-24T11:26:34.786Z,108.43
2023-02-24T11:29:17.456Z,70.83
2023-02-24T11:32:19.183Z,84.57
2023-02-24T11:35:17.752Z,75.73
2023-02-24T11:38:02.649Z,70.27
2023-02-24T11:40:37.644Z,80.27
2023-02-24T11:43:18.514Z,74.20
2023-02-24T11:46:02.288Z,87.90
2023-02-24T11:48:48.188Z,67.43
2023-02-24T11:51:23.736Z,66.27
2023-02-24T11:54:04.137Z,73.97
2023-02-24T11:56:38.839Z,69.97
2023-02-24T11:59:18.785Z,83.13
2023-02-24T12:02:17.077Z,71.63
2023-02-24T12:05:00.294Z,77.60
2023-02-24T12:07:50.407Z,59.40
2023-02-24T12:10:24.352Z,72.30
2023-02-24T12:13:21.418Z,91.70
2023-02-24T12:16:03.253Z,97.40
2023-02-24T12:18:42.925Z,72.53
2023-02-24T12:21:33.907Z,72.30
2023-02-24T12:24:02.249Z,90.13
2023-02-24T12:26:48.029Z,62.40
2023-02-24T12:29:57.780Z,65.33
2023-02-24T12:32:47.251Z,58.20
2023-02-24T12:35:33.608Z,66.20
2023-02-24T12:38:41.321Z,53.13
2023-02-24T12:41:23.733Z,56.73
2023-02-24T12:44:48.150Z,56.70
2023-02-24T12:47:32.949Z,50.00
2023-02-24T12:50:10.704Z,62.07
2023-02-24T12:52:55.030Z,48.83
2023-02-24T12:55:49.020Z,61.10
2023-02-24T12:58:45.982Z,59.83
2023-02-24T13:01:27.804Z,56.90
2023-02-24T13:04:45.300Z,55.17
2023-02-24T13:07:39.460Z,52.70
2023-02-24T13:10:49.547Z,55.47
2023-02-24T13:13:41.855Z,64.90
2023-02-24T13:16:12.198Z,38.93
2023-02-24T13:18:39.594Z,54.53
2023-02-24T13:21:22.769Z,52.40
2023-02-24T13:23:58.355Z,45.30
2023-02-24T13:26:28.079Z,50.17
2023-02-24T13:29:15.023Z,67.87
2023-02-24T13:31:53.150Z,65.50
2023-02-24T13:34:26.307Z,53.23
2023-02-24T13:36:53.410Z,53.07
2023-02-24T13:39:36.743Z,62.13
2023-02-24T13:42:31.198Z,68.23
2023-02-24T13:45:10.304Z,59.13
2023-02-24T13:48:23.060Z,48.50
2023-02-24T13:51:11.731Z,52.13
2023-02-24T13:54:20.221Z,72.37
2023-02-24T13:57:00.227Z,61.50
2023-02-24T14:00:10.134Z,48.67
2023-02-24T14:02:44.106Z,72.07
2023-02-24T14:05:25.085Z,55.77
2023-02-24T14:07:53.256Z,47.63
2023-02-24T14:10:30.528Z,50.77
2023-02-24T14:13:11.782Z,50.83
2023-02-24T14:15:43.380Z,48.60
2023-02-24T14:18:28.915Z,37.53
2023-02-24T14:20:58.514Z,45.87
2023-02-24T14:23:28.887Z,35.93
2023-02-24T14:26:07.399Z,48.73
2023-02-24T14:28:38.007Z,42.53
2023-02-24T14:31:15.599Z,47.40
2023-02-24T14:33:45.380Z,53.10
2023-02-24T14:36:21.437Z,49.23
2023-02-24T14:39:08.860Z,67.73
2023-02-24T14:41:36.672Z,49.77
2023-02-24T14:44:23.258Z,47.33
2023-02-24T14:46:53.974Z,44.83
2023-02-24T14:49:25.560Z,46.97
2023-02-24T14:52:03.419Z,51.43
2023-02-24T14:54:55.592Z,63.50
2023-02-24T14:57:29.194Z,49.13
2023-02-24T15:00:10.648Z,67.20
2023-02-24T15:02:44.968Z,95.07
2023-02-24T15:05:12.391Z,73.80
2023-02-24T15:07:40.219Z,76.03
2023-02-24T15:10:21.053Z,62.87
2023-02-24T15:12:54.429Z,47.77
2023-02-24T15:15:28.506Z,45.43
2023-02-24T15:18:04.258Z,63.63
2023-02-24T15:20:40.718Z,35.73
2023-02-24T15:23:29.029Z,65.33
2023-02-24T15:25:56.066Z,47.40
2023-02-24T15:28:31.259Z,43.23
2023-02-24T15:31:00.995Z,41.33
2023-02-24T15:33:45.384Z,49.53
2023-02-24T15:36:21.666Z,44.90
2023-02-24T15:38:53.774Z,33.33
2023-02-24T15:41:21.419Z,43.67
2023-02-24T15:43:52.972Z,38.60
2023-02-24T15:46:31.871Z,43.00
2023-02-24T15:49:03.150Z,37.80
2023-02-24T15:51:45.302Z,44.27
2023-02-24T15:54:30.801Z,39.53
2023-02-24T15:57:00.150Z,61.77
2023-02-24T15:59:28.334Z,48.53
2023-02-24T16:01:55.745Z,39.77
2023-02-24T16:04:23.932Z,50.83
2023-02-24T16:06:55.612Z,51.10
2023-02-24T16:09:36.626Z,41.77
2023-02-24T16:12:17.345Z,42.90
2023-02-24T16:14:45.145Z,49.17
2023-02-24T16:17:32.428Z,34.93
2023-02-24T16:20:00.271Z,40.93
2023-02-24T16:22:28.672Z,42.50
2023-02-24T16:24:58.770Z,40.00
2023-02-24T16:27:27.435Z,39.80
2023-02-24T16:29:54.457Z,35.83
2023-02-24T16:32:23.542Z,38.60
2023-02-24T16:34:51.425Z,42.40
2023-02-24T16:37:29.330Z,35.30
2023-02-24T16:39:59.023Z,34.03
2023-02-24T16:42:31.016Z,47.50
2023-02-24T16:44:57.967Z,39.20
2023-02-24T16:47:25.773Z,37.90
2023-02-24T16:49:57.562Z,52.50
2023-02-24T16:52:24.946Z,41.67
2023-02-24T16:54:52.149Z,35.60
2023-02-24T16:57:19.122Z,42.03
2023-02-24T16:59:46.482Z,49.10
2023-02-24T17:02:22.640Z,60.33
2023-02-24T17:04:49.738Z,47.07
2023-02-24T17:07:19.015Z,34.20
2023-02-24T17:09:45.950Z,43.27
2023-02-24T17:12:14.760Z,36.50
2023-02-24T17:14:41.698Z,41.40
2023-02-24T17:17:08.757Z,53.57
2023-02-24T17:19:35.763Z,50.73
2023-02-24T17:22:02.798Z,84.37
2023-02-24T17:24:29.924Z,64.33
2023-02-24T17:27:01.078Z,46.17
2023-02-24T17:29:28.340Z,35.97
2023-02-24T17:31:55.457Z,39.97
2023-02-24T17:34:24.205Z,31.27
2023-02-24T17:36:51.274Z,42.17
2023-02-24T17:39:18.324Z,33.23
2023-02-24T17:41:45.400Z,38.43
2023-02-24T17:44:12.421Z,39.50
2023-02-24T17:46:39.502Z,38.90
2023-02-24T17:49:06.548Z,50.83
2023-02-24T17:51:33.724Z,38.37
2023-02-24T17:54:00.690Z,48.50
2023-02-24T17:56:27.725Z,30.07
2023-02-24T17:58:58.672Z,40.47
2023-02-24T18:01:26.302Z,30.10
2023-02-24T18:03:55.674Z,40.83
2023-02-24T18:06:23.263Z,38.07
2023-02-24T18:08:50.805Z,30.00
2023-02-24T18:11:19.785Z,38.23
2023-02-24T18:13:48.602Z,35.20
2023-02-24T18:16:16.337Z,32.60
2023-02-24T18:18:43.400Z,41.27
2023-02-24T18:21:10.389Z,38.50
2023-02-24T18:23:41.008Z,41.57
2023-02-24T18:26:11.103Z,40.57
2023-02-24T18:28:38.810Z,43.77
2023-02-24T18:31:18.796Z,38.40
2023-02-24T18:33:46.330Z,43.87
2023-02-24T18:36:14.954Z,50.90
2023-02-24T18:38:41.872Z,43.40
2023-02-24T18:41:12.532Z,51.93
2023-02-24T18:43:39.766Z,35.53
2023-02-24T18:46:11.941Z,50.20
2023-02-24T18:48:40.643Z,46.47
2023-02-24T18:51:08.299Z,33.83
2023-02-24T18:53:38.292Z,45.60
2023-02-24T18:56:09.449Z,41.67
2023-02-24T18:58:37.211Z,39.30
2023-02-24T19:01:21.425Z,35.27
2023-02-24T19:03:51.017Z,45.20
2023-02-24T19:06:20.754Z,52.63
2023-02-24T19:08:54.571Z,49.23
2023-02-24T19:11:21.717Z,37.27
2023-02-24T19:13:48.747Z,36.50
2023-02-24T19:16:17.821Z,32.80
2023-02-24T19:18:45.224Z,45.13
2023-02-24T19:21:13.932Z,36.10
2023-02-24T19:23:41.030Z,45.57
2023-02-24T19:26:23.580Z,40.17
2023-02-24T19:28:51.614Z,44.33
2023-02-24T19:31:23.730Z,41.10
2023-02-24T19:34:01.035Z,36.57
2023-02-24T19:36:30.761Z,47.73
2023-02-24T19:38:57.788Z,49.63
2023-02-24T19:41:25.021Z,38.50
2023-02-24T19:43:52.284Z,50.20
2023-02-24T19:46:19.711Z,41.33
2023-02-24T19:48:47.061Z,40.50
2023-02-24T19:51:18.571Z,36.80
2023-02-24T19:53:45.877Z,52.60
2023-02-24T19:56:13.616Z,33.50
2023-02-24T19:58:40.617Z,41.97
2023-02-24T20:01:13.803Z,38.53
2023-02-24T20:03:42.648Z,36.00
2023-02-24T20:06:35.751Z,32.90
2023-02-24T20:09:15.381Z,27.27
2023-02-24T20:11:44.333Z,33.33
2023-02-24T20:14:12.855Z,26.80
2023-02-24T20:16:42.255Z,33.57
2023-02-24T20:19:11.488Z,37.20
2023-02-24T20:21:39.269Z,38.37
2023-02-24T20:24:12.624Z,30.90
2023-02-24T20:26:43.501Z,32.47
2023-02-24T20:29:11.401Z,31.13
2023-02-24T20:31:39.871Z,41.10
2023-02-24T20:34:09.252Z,25.43
2023-02-24T20:36:36.829Z,43.30
2023-02-24T20:39:06.536Z,31.20
2023-02-24T20:41:34.552Z,38.53
2023-02-24T20:44:01.491Z,27.17
2023-02-24T20:46:31.457Z,20.70
2023-02-24T20:49:02.215Z,29.77
2023-02-24T20:51:31.169Z,22.57
2023-02-24T20:53:58.864Z,25.07
2023-02-24T20:56:33.945Z,22.30
2023-02-24T20:59:04.665Z,13.20
2023-02-24T21:01:32.940Z,14.63
2023-02-24T21:04:01.254Z,12.83
2023-02-24T21:06:29.309Z,10.13
2023-02-24T21:08:57.619Z,12.93
2023-02-24T21:11:25.856Z,6.57
2023-02-24T21:13:53.645Z,2.50
2023-02-24T21:16:21.973Z,2.93
2023-02-24T21:18:51.482Z,5.87
2023-02-24T21:21:20.196Z,13.23
2023-02-24T21:23:47.945Z,1.73
2023-02-24T21:26:15.274Z,1.37
2023-02-24T21:28:42.377Z,1.30
2023-02-24T21:31:20.425Z,1.73
2023-02-24T21:33:52.199Z,1.90
2023-02-24T21:36:21.444Z,1.63
2023-02-24T21:38:49.274Z,3.30
2023-02-24T21:41:19.369Z,2.90
2023-02-24T21:43:47.098Z,0.80
2023-02-24T21:46:15.926Z,1.20
2023-02-24T21:48:43.399Z,9.80
2023-02-24T21:51:12.646Z,2.13
2023-02-24T21:53:43.462Z,1.40
2023-02-24T21:56:20.107Z,1.60
2023-02-24T21:58:56.489Z,7.10
2023-02-24T22:01:28.665Z,1.90
2023-02-24T22:03:59.429Z,3.73
2023-02-24T22:06:31.022Z,4.47
2023-02-24T22:08:58.899Z,4.03
2023-02-24T22:11:26.218Z,2.90
2023-02-24T22:13:53.167Z,2.70
2023-02-24T22:16:23.806Z,6.27
2023-02-24T22:18:53.331Z,5.13
2023-02-24T22:21:24.357Z,4.47
2023-02-24T22:23:54.088Z,3.63
2023-02-24T22:26:23.578Z,15.00
2023-02-24T22:28:51.462Z,4.50
2023-02-24T22:31:22.400Z,8.83
2023-02-24T22:33:50.181Z,10.03
2023-02-24T22:36:20.508Z,5.73
2023-02-24T22:38:48.285Z,9.23
2023-02-24T22:41:18.826Z,7.67
2023-02-24T22:43:46.627Z,11.83
2023-02-24T22:46:17.857Z,10.73
2023-02-24T22:48:45.539Z,9.07
2023-02-24T22:51:13.836Z,7.43
2023-02-24T22:53:43.353Z,10.73
2023-02-24T22:56:15.666Z,13.33
2023-02-24T22:58:43.487Z,10.80
2023-02-24T23:01:17.334Z,14.40
2023-02-24T23:03:46.104Z,10.00
2023-02-24T23:06:17.254Z,21.90
2023-02-24T23:08:47.357Z,14.93
2023-02-24T23:11:21.791Z,14.83
2023-02-24T23:13:50.962Z,8.33
2023-02-24T23:16:24.601Z,19.70
2023-02-24T23:18:53.869Z,10.60
2023-02-24T23:21:53.848Z,19.57
2023-02-24T23:24:22.144Z,10.90
2023-02-24T23:26:53.841Z,8.47
2023-02-24T23:29:22.474Z,9.40
2023-02-24T23:31:51.189Z,15.60
2023-02-24T23:34:18.865Z,12.93
2023-02-24T23:36:47.855Z,18.30
2023-02-24T23:39:17.316Z,9.97
2023-02-24T23:41:44.851Z,11.70
2023-02-24T23:44:12.678Z,19.33
2023-02-24T23:46:41.660Z,20.13
2023-02-24T23:49:08.764Z,8.47
2023-02-24T23:51:47.475Z,19.53
2023-02-24T23:54:19.160Z,9.30
2023-02-24T23:56:46.448Z,11.57
2023-02-24T23:59:13.681Z,15.23
